sensor_id;sensor_type;location;lat;lon;timestamp;P1;durP1;ratioP1;P2;durP2;ratioP2
71317;SDS011;59106;44.706;18.310;2024-03-02T00:01:06;57.75;;;30.48;;
71317;SDS011;59106;44.706;18.310;2024-03-02T00:03:44;60.20;;;31.00;;
71317;SDS011;59106;44.706;18.310;2024-03-02T00:06:10;53.45;;;29.80;;
71317;SDS011;59106;44.706;18.310;2024-03-02T00:08:36;56.72;;;29.63;;
71317;SDS011;59106;44.706;18.310;2024-03-02T00:11:02;50.67;;;28.57;;
71317;SDS011;59106;44.706;18.310;2024-03-02T00:13:28;53.05;;;28.55;;
71317;SDS011;59106;44.706;18.310;2024-03-02T00:15:56;54.72;;;28.80;;
71317;SDS011;59106;44.706;18.310;2024-03-02T00:20:55;54.35;;;28.55;;
71317;SDS011;59106;44.706;18.310;2024-03-02T00:23:24;48.30;;;26.35;;
71317;SDS011;59106;44.706;18.310;2024-03-02T00:25:55;47.38;;;25.23;;
71317;SDS011;59106;44.706;18.310;2024-03-02T00:28:22;47.58;;;25.17;;
71317;SDS011;59106;44.706;18.310;2024-03-02T00:33:19;49.28;;;26.08;;
71317;SDS011;59106;44.706;18.310;2024-03-02T00:35:45;48.72;;;25.85;;
71317;SDS011;59106;44.706;18.310;2024-03-02T00:38:11;49.80;;;26.17;;
71317;SDS011;59106;44.706;18.310;2024-03-02T00:40:38;52.85;;;27.73;;
71317;SDS011;59106;44.706;18.310;2024-03-02T00:43:04;53.17;;;27.40;;
71317;SDS011;59106;44.706;18.310;2024-03-02T00:45:30;50.75;;;27.88;;
71317;SDS011;59106;44.706;18.310;2024-03-02T00:47:56;50.50;;;27.02;;
71317;SDS011;59106;44.706;18.310;2024-03-02T00:50:21;48.90;;;27.57;;
71317;SDS011;59106;44.706;18.310;2024-03-02T00:52:47;48.75;;;27.75;;
71317;SDS011;59106;44.706;18.310;2024-03-02T00:55:16;49.25;;;27.40;;
71317;SDS011;59106;44.706;18.310;2024-03-02T00:57:42;47.40;;;25.60;;
71317;SDS011;59106;44.706;18.310;2024-03-02T01:00:09;45.83;;;25.73;;
71317;SDS011;59106;44.706;18.310;2024-03-02T01:02:38;47.65;;;25.80;;
71317;SDS011;59106;44.706;18.310;2024-03-02T01:05:04;46.80;;;25.30;;
71317;SDS011;59106;44.706;18.310;2024-03-02T01:07:31;48.55;;;25.42;;
71317;SDS011;59106;44.706;18.310;2024-03-02T01:09:56;45.30;;;24.97;;
71317;SDS011;59106;44.706;18.310;2024-03-02T01:12:22;45.28;;;25.30;;
71317;SDS011;59106;44.706;18.310;2024-03-02T01:14:48;45.25;;;25.13;;
71317;SDS011;59106;44.706;18.310;2024-03-02T01:17:14;43.88;;;24.65;;
71317;SDS011;59106;44.706;18.310;2024-03-02T01:19:41;46.90;;;25.53;;
71317;SDS011;59106;44.706;18.310;2024-03-02T01:22:07;47.10;;;26.23;;
71317;SDS011;59106;44.706;18.310;2024-03-02T01:24:33;48.90;;;26.77;;
71317;SDS011;59106;44.706;18.310;2024-03-02T01:26:59;46.97;;;26.95;;
71317;SDS011;59106;44.706;18.310;2024-03-02T01:29:25;48.78;;;26.38;;
71317;SDS011;59106;44.706;18.310;2024-03-02T01:31:51;47.53;;;26.40;;
71317;SDS011;59106;44.706;18.310;2024-03-02T01:34:19;48.88;;;26.58;;
71317;SDS011;59106;44.706;18.310;2024-03-02T01:36:45;44.22;;;24.83;;
71317;SDS011;59106;44.706;18.310;2024-03-02T01:39:10;44.63;;;24.80;;
71317;SDS011;59106;44.706;18.310;2024-03-02T01:41:37;45.33;;;24.92;;
71317;SDS011;59106;44.706;18.310;2024-03-02T01:44:02;44.22;;;24.15;;
71317;SDS011;59106;44.706;18.310;2024-03-02T01:46:28;44.25;;;24.27;;
71317;SDS011;59106;44.706;18.310;2024-03-02T01:48:54;44.30;;;24.77;;
71317;SDS011;59106;44.706;18.310;2024-03-02T01:51:21;45.40;;;24.63;;
71317;SDS011;59106;44.706;18.310;2024-03-02T01:53:47;45.65;;;24.75;;
71317;SDS011;59106;44.706;18.310;2024-03-02T01:56:13;44.35;;;25.00;;
71317;SDS011;59106;44.706;18.310;2024-03-02T01:58:38;47.23;;;26.40;;
71317;SDS011;59106;44.706;18.310;2024-03-02T02:01:04;44.95;;;25.17;;
71317;SDS011;59106;44.706;18.310;2024-03-02T02:03:30;49.75;;;26.25;;
71317;SDS011;59106;44.706;18.310;2024-03-02T02:05:56;49.47;;;27.33;;
71317;SDS011;59106;44.706;18.310;2024-03-02T02:11:55;49.17;;;24.92;;
71317;SDS011;59106;44.706;18.310;2024-03-02T02:14:23;47.58;;;24.10;;
71317;SDS011;59106;44.706;18.310;2024-03-02T02:16:49;45.72;;;24.17;;
71317;SDS011;59106;44.706;18.310;2024-03-02T02:19:15;44.05;;;24.00;;
71317;SDS011;59106;44.706;18.310;2024-03-02T02:21:44;44.87;;;24.00;;
71317;SDS011;59106;44.706;18.310;2024-03-02T02:24:10;43.13;;;22.88;;
71317;SDS011;59106;44.706;18.310;2024-03-02T02:26:36;41.85;;;23.10;;
71317;SDS011;59106;44.706;18.310;2024-03-02T02:29:02;42.43;;;22.73;;
71317;SDS011;59106;44.706;18.310;2024-03-02T02:31:36;43.72;;;24.02;;
71317;SDS011;59106;44.706;18.310;2024-03-02T02:34:02;44.80;;;24.67;;
71317;SDS011;59106;44.706;18.310;2024-03-02T02:36:28;45.77;;;24.30;;
71317;SDS011;59106;44.706;18.310;2024-03-02T02:38:54;43.65;;;23.42;;
71317;SDS011;59106;44.706;18.310;2024-03-02T02:41:20;40.88;;;22.15;;
71317;SDS011;59106;44.706;18.310;2024-03-02T02:43:46;43.55;;;22.83;;
71317;SDS011;59106;44.706;18.310;2024-03-02T02:46:12;45.13;;;23.07;;
71317;SDS011;59106;44.706;18.310;2024-03-02T02:48:38;45.63;;;24.42;;
71317;SDS011;59106;44.706;18.310;2024-03-02T02:51:04;47.58;;;24.80;;
71317;SDS011;59106;44.706;18.310;2024-03-02T02:53:30;46.00;;;24.55;;
71317;SDS011;59106;44.706;18.310;2024-03-02T02:55:55;44.77;;;25.13;;
71317;SDS011;59106;44.706;18.310;2024-03-02T02:58:21;46.38;;;24.48;;
71317;SDS011;59106;44.706;18.310;2024-03-02T03:00:47;46.23;;;24.93;;
71317;SDS011;59106;44.706;18.310;2024-03-02T03:03:13;43.35;;;23.95;;
71317;SDS011;59106;44.706;18.310;2024-03-02T03:05:39;45.35;;;24.40;;
71317;SDS011;59106;44.706;18.310;2024-03-02T03:08:05;44.07;;;23.30;;
71317;SDS011;59106;44.706;18.310;2024-03-02T03:10:30;45.13;;;22.42;;
71317;SDS011;59106;44.706;18.310;2024-03-02T03:12:56;40.92;;;21.75;;
71317;SDS011;59106;44.706;18.310;2024-03-02T03:15:22;42.17;;;21.57;;
71317;SDS011;59106;44.706;18.310;2024-03-02T03:17:48;42.55;;;22.55;;
71317;SDS011;59106;44.706;18.310;2024-03-02T03:20:14;40.95;;;22.05;;
71317;SDS011;59106;44.706;18.310;2024-03-02T03:22:41;41.28;;;22.02;;
71317;SDS011;59106;44.706;18.310;2024-03-02T03:25:07;41.95;;;23.05;;
71317;SDS011;59106;44.706;18.310;2024-03-02T03:27:33;41.22;;;21.08;;
71317;SDS011;59106;44.706;18.310;2024-03-02T03:29:59;36.95;;;20.00;;
71317;SDS011;59106;44.706;18.310;2024-03-02T03:32:25;34.20;;;19.17;;
71317;SDS011;59106;44.706;18.310;2024-03-02T03:34:51;34.38;;;19.10;;
71317;SDS011;59106;44.706;18.310;2024-03-02T03:37:16;36.78;;;19.58;;
71317;SDS011;59106;44.706;18.310;2024-03-02T03:39:42;37.30;;;20.00;;
71317;SDS011;59106;44.706;18.310;2024-03-02T03:42:08;38.53;;;19.88;;
71317;SDS011;59106;44.706;18.310;2024-03-02T03:44:34;39.95;;;20.63;;
71317;SDS011;59106;44.706;18.310;2024-03-02T03:47:00;39.30;;;20.80;;
71317;SDS011;59106;44.706;18.310;2024-03-02T03:49:28;40.40;;;21.10;;
71317;SDS011;59106;44.706;18.310;2024-03-02T03:51:53;41.53;;;21.37;;
71317;SDS011;59106;44.706;18.310;2024-03-02T03:54:20;39.33;;;22.30;;
71317;SDS011;59106;44.706;18.310;2024-03-02T03:56:45;40.55;;;22.58;;
71317;SDS011;59106;44.706;18.310;2024-03-02T03:59:11;38.08;;;21.02;;
71317;SDS011;59106;44.706;18.310;2024-03-02T04:01:37;46.73;;;23.60;;
71317;SDS011;59106;44.706;18.310;2024-03-02T04:04:03;49.95;;;24.85;;
71317;SDS011;59106;44.706;18.310;2024-03-02T04:06:29;39.15;;;20.63;;
71317;SDS011;59106;44.706;18.310;2024-03-02T04:08:55;42.65;;;20.63;;
71317;SDS011;59106;44.706;18.310;2024-03-02T04:11:21;44.60;;;20.97;;
71317;SDS011;59106;44.706;18.310;2024-03-02T04:13:47;36.27;;;19.07;;
71317;SDS011;59106;44.706;18.310;2024-03-02T04:16:13;38.08;;;19.08;;
71317;SDS011;59106;44.706;18.310;2024-03-02T04:18:39;36.13;;;19.40;;
71317;SDS011;59106;44.706;18.310;2024-03-02T04:21:05;37.93;;;19.47;;
71317;SDS011;59106;44.706;18.310;2024-03-02T04:23:31;39.35;;;19.33;;
71317;SDS011;59106;44.706;18.310;2024-03-02T04:25:56;38.70;;;19.33;;
71317;SDS011;59106;44.706;18.310;2024-03-02T04:28:22;39.58;;;19.85;;
71317;SDS011;59106;44.706;18.310;2024-03-02T04:30:48;37.80;;;19.27;;
71317;SDS011;59106;44.706;18.310;2024-03-02T04:33:14;34.50;;;18.95;;
71317;SDS011;59106;44.706;18.310;2024-03-02T04:35:40;38.10;;;19.97;;
71317;SDS011;59106;44.706;18.310;2024-03-02T04:38:06;40.17;;;21.80;;
71317;SDS011;59106;44.706;18.310;2024-03-02T04:40:32;40.60;;;20.35;;
71317;SDS011;59106;44.706;18.310;2024-03-02T04:42:57;37.97;;;20.27;;
71317;SDS011;59106;44.706;18.310;2024-03-02T04:45:25;36.10;;;19.83;;
71317;SDS011;59106;44.706;18.310;2024-03-02T04:47:50;34.90;;;20.10;;
71317;SDS011;59106;44.706;18.310;2024-03-02T04:50:16;38.03;;;20.20;;
71317;SDS011;59106;44.706;18.310;2024-03-02T04:52:42;49.22;;;26.17;;
71317;SDS011;59106;44.706;18.310;2024-03-02T04:55:08;60.55;;;35.75;;
71317;SDS011;59106;44.706;18.310;2024-03-02T04:57:52;57.35;;;34.15;;
71317;SDS011;59106;44.706;18.310;2024-03-02T05:00:20;44.10;;;24.52;;
71317;SDS011;59106;44.706;18.310;2024-03-02T05:02:46;44.10;;;24.00;;
71317;SDS011;59106;44.706;18.310;2024-03-02T05:05:12;49.78;;;26.15;;
71317;SDS011;59106;44.706;18.310;2024-03-02T05:07:40;51.85;;;25.65;;
71317;SDS011;59106;44.706;18.310;2024-03-02T05:10:08;42.80;;;22.13;;
71317;SDS011;59106;44.706;18.310;2024-03-02T05:12:34;37.05;;;18.20;;
71317;SDS011;59106;44.706;18.310;2024-03-02T05:15:20;36.22;;;19.63;;
71317;SDS011;59106;44.706;18.310;2024-03-02T05:17:47;41.22;;;19.98;;
71317;SDS011;59106;44.706;18.310;2024-03-02T05:20:13;35.33;;;18.65;;
71317;SDS011;59106;44.706;18.310;2024-03-02T05:22:38;37.47;;;18.93;;
71317;SDS011;59106;44.706;18.310;2024-03-02T05:25:05;36.50;;;19.42;;
71317;SDS011;59106;44.706;18.310;2024-03-02T05:27:31;35.17;;;18.60;;
71317;SDS011;59106;44.706;18.310;2024-03-02T05:30:01;41.67;;;21.60;;
71317;SDS011;59106;44.706;18.310;2024-03-02T05:32:27;53.60;;;29.30;;
71317;SDS011;59106;44.706;18.310;2024-03-02T05:34:53;54.13;;;28.45;;
71317;SDS011;59106;44.706;18.310;2024-03-02T05:37:19;54.50;;;30.87;;
71317;SDS011;59106;44.706;18.310;2024-03-02T05:39:45;55.33;;;30.87;;
71317;SDS011;59106;44.706;18.310;2024-03-02T05:42:11;47.85;;;26.58;;
71317;SDS011;59106;44.706;18.310;2024-03-02T05:44:37;42.17;;;22.40;;
71317;SDS011;59106;44.706;18.310;2024-03-02T05:47:03;43.73;;;24.10;;
71317;SDS011;59106;44.706;18.310;2024-03-02T05:49:29;49.95;;;28.23;;
71317;SDS011;59106;44.706;18.310;2024-03-02T05:51:55;47.53;;;26.10;;
71317;SDS011;59106;44.706;18.310;2024-03-02T05:54:21;51.13;;;28.10;;
71317;SDS011;59106;44.706;18.310;2024-03-02T05:56:47;58.08;;;29.85;;
71317;SDS011;59106;44.706;18.310;2024-03-02T05:59:13;55.15;;;31.13;;
71317;SDS011;59106;44.706;18.310;2024-03-02T06:01:42;52.03;;;27.55;;
71317;SDS011;59106;44.706;18.310;2024-03-02T06:04:09;52.13;;;26.52;;
71317;SDS011;59106;44.706;18.310;2024-03-02T06:06:36;57.97;;;29.60;;
71317;SDS011;59106;44.706;18.310;2024-03-02T06:09:02;55.80;;;30.08;;
71317;SDS011;59106;44.706;18.310;2024-03-02T06:11:33;64.30;;;33.22;;
71317;SDS011;59106;44.706;18.310;2024-03-02T06:13:59;85.30;;;40.37;;
71317;SDS011;59106;44.706;18.310;2024-03-02T06:16:25;158.10;;;62.90;;
71317;SDS011;59106;44.706;18.310;2024-03-02T06:18:51;96.75;;;41.75;;
71317;SDS011;59106;44.706;18.310;2024-03-02T06:21:19;68.15;;;33.58;;
71317;SDS011;59106;44.706;18.310;2024-03-02T06:23:45;61.33;;;29.37;;
71317;SDS011;59106;44.706;18.310;2024-03-02T06:26:11;66.80;;;30.57;;
71317;SDS011;59106;44.706;18.310;2024-03-02T06:28:38;61.65;;;31.15;;
71317;SDS011;59106;44.706;18.310;2024-03-02T06:31:03;56.87;;;31.00;;
71317;SDS011;59106;44.706;18.310;2024-03-02T06:33:30;59.30;;;32.50;;
71317;SDS011;59106;44.706;18.310;2024-03-02T06:35:55;58.10;;;31.42;;
71317;SDS011;59106;44.706;18.310;2024-03-02T06:38:21;106.00;;;51.23;;
71317;SDS011;59106;44.706;18.310;2024-03-02T06:40:47;111.72;;;53.72;;
71317;SDS011;59106;44.706;18.310;2024-03-02T06:43:13;75.07;;;38.53;;
71317;SDS011;59106;44.706;18.310;2024-03-02T06:45:39;58.93;;;31.07;;
71317;SDS011;59106;44.706;18.310;2024-03-02T06:48:05;56.65;;;31.10;;
71317;SDS011;59106;44.706;18.310;2024-03-02T06:50:31;77.78;;;40.88;;
71317;SDS011;59106;44.706;18.310;2024-03-02T06:52:57;87.75;;;46.53;;
71317;SDS011;59106;44.706;18.310;2024-03-02T06:55:23;92.67;;;49.47;;
71317;SDS011;59106;44.706;18.310;2024-03-02T06:57:50;78.85;;;44.78;;
71317;SDS011;59106;44.706;18.310;2024-03-02T07:00:16;88.28;;;48.80;;
71317;SDS011;59106;44.706;18.310;2024-03-02T07:02:44;72.43;;;41.45;;
71317;SDS011;59106;44.706;18.310;2024-03-02T07:05:10;83.32;;;47.42;;
71317;SDS011;59106;44.706;18.310;2024-03-02T07:07:36;80.73;;;44.80;;
71317;SDS011;59106;44.706;18.310;2024-03-02T07:10:03;97.18;;;51.55;;
71317;SDS011;59106;44.706;18.310;2024-03-02T07:12:29;94.53;;;52.30;;
71317;SDS011;59106;44.706;18.310;2024-03-02T07:14:54;75.73;;;45.87;;
71317;SDS011;59106;44.706;18.310;2024-03-02T07:17:32;71.57;;;42.83;;
71317;SDS011;59106;44.706;18.310;2024-03-02T07:19:58;70.72;;;41.63;;
71317;SDS011;59106;44.706;18.310;2024-03-02T07:22:24;65.20;;;38.97;;
71317;SDS011;59106;44.706;18.310;2024-03-02T07:24:50;65.47;;;38.43;;
71317;SDS011;59106;44.706;18.310;2024-03-02T07:27:16;75.25;;;42.83;;
71317;SDS011;59106;44.706;18.310;2024-03-02T07:29:43;69.20;;;40.22;;
71317;SDS011;59106;44.706;18.310;2024-03-02T07:32:09;71.80;;;41.43;;
71317;SDS011;59106;44.706;18.310;2024-03-02T07:34:35;72.05;;;40.83;;
71317;SDS011;59106;44.706;18.310;2024-03-02T07:37:02;79.43;;;43.43;;
71317;SDS011;59106;44.706;18.310;2024-03-02T07:39:28;74.78;;;42.47;;
71317;SDS011;59106;44.706;18.310;2024-03-02T07:41:54;78.47;;;45.20;;
71317;SDS011;59106;44.706;18.310;2024-03-02T07:44:19;83.33;;;48.00;;
71317;SDS011;59106;44.706;18.310;2024-03-02T07:46:46;78.87;;;44.83;;
71317;SDS011;59106;44.706;18.310;2024-03-02T07:49:12;71.28;;;43.13;;
71317;SDS011;59106;44.706;18.310;2024-03-02T07:51:39;68.53;;;39.83;;
71317;SDS011;59106;44.706;18.310;2024-03-02T07:54:05;78.73;;;46.17;;
71317;SDS011;59106;44.706;18.310;2024-03-02T07:56:31;78.55;;;46.05;;
71317;SDS011;59106;44.706;18.310;2024-03-02T07:58:57;74.32;;;43.95;;
71317;SDS011;59106;44.706;18.310;2024-03-02T08:01:27;70.97;;;42.65;;
71317;SDS011;59106;44.706;18.310;2024-03-02T08:03:54;86.40;;;48.50;;
71317;SDS011;59106;44.706;18.310;2024-03-02T08:06:23;79.47;;;47.38;;
71317;SDS011;59106;44.706;18.310;2024-03-02T08:08:48;72.90;;;43.90;;
71317;SDS011;59106;44.706;18.310;2024-03-02T08:11:14;73.18;;;42.97;;
71317;SDS011;59106;44.706;18.310;2024-03-02T08:13:40;70.63;;;43.58;;
71317;SDS011;59106;44.706;18.310;2024-03-02T08:16:06;68.15;;;43.08;;
71317;SDS011;59106;44.706;18.310;2024-03-02T08:18:34;72.97;;;43.50;;
71317;SDS011;59106;44.706;18.310;2024-03-02T08:21:01;75.97;;;44.83;;
71317;SDS011;59106;44.706;18.310;2024-03-02T08:23:27;79.55;;;46.95;;
71317;SDS011;59106;44.706;18.310;2024-03-02T08:25:53;85.45;;;49.53;;
71317;SDS011;59106;44.706;18.310;2024-03-02T08:28:19;84.70;;;47.97;;
71317;SDS011;59106;44.706;18.310;2024-03-02T08:30:45;70.60;;;40.47;;
71317;SDS011;59106;44.706;18.310;2024-03-02T08:33:11;62.10;;;36.20;;
71317;SDS011;59106;44.706;18.310;2024-03-02T08:35:37;68.50;;;38.97;;
71317;SDS011;59106;44.706;18.310;2024-03-02T08:38:03;66.07;;;38.95;;
71317;SDS011;59106;44.706;18.310;2024-03-02T08:40:30;69.53;;;40.13;;
71317;SDS011;59106;44.706;18.310;2024-03-02T08:42:55;52.33;;;31.07;;
71317;SDS011;59106;44.706;18.310;2024-03-02T08:45:21;47.58;;;29.17;;
71317;SDS011;59106;44.706;18.310;2024-03-02T08:47:48;48.70;;;30.80;;
71317;SDS011;59106;44.706;18.310;2024-03-02T08:50:14;48.38;;;29.23;;
71317;SDS011;59106;44.706;18.310;2024-03-02T08:52:40;51.15;;;30.13;;
71317;SDS011;59106;44.706;18.310;2024-03-02T08:55:06;48.92;;;28.58;;
71317;SDS011;59106;44.706;18.310;2024-03-02T08:57:32;44.57;;;27.43;;
71317;SDS011;59106;44.706;18.310;2024-03-02T08:59:59;42.03;;;24.90;;
71317;SDS011;59106;44.706;18.310;2024-03-02T09:02:25;38.30;;;23.35;;
71317;SDS011;59106;44.706;18.310;2024-03-02T09:04:51;40.67;;;23.60;;
71317;SDS011;59106;44.706;18.310;2024-03-02T09:07:17;37.67;;;22.20;;
71317;SDS011;59106;44.706;18.310;2024-03-02T09:09:43;30.83;;;17.58;;
71317;SDS011;59106;44.706;18.310;2024-03-02T09:12:09;33.30;;;19.70;;
71317;SDS011;59106;44.706;18.310;2024-03-02T09:14:36;29.93;;;18.07;;
71317;SDS011;59106;44.706;18.310;2024-03-02T09:17:02;33.10;;;19.90;;
71317;SDS011;59106;44.706;18.310;2024-03-02T09:19:29;32.50;;;18.48;;
71317;SDS011;59106;44.706;18.310;2024-03-02T09:21:55;30.73;;;18.15;;
71317;SDS011;59106;44.706;18.310;2024-03-02T09:24:24;25.90;;;15.40;;
71317;SDS011;59106;44.706;18.310;2024-03-02T09:26:50;33.13;;;17.37;;
71317;SDS011;59106;44.706;18.310;2024-03-02T09:29:16;27.80;;;15.65;;
71317;SDS011;59106;44.706;18.310;2024-03-02T09:31:42;34.25;;;18.98;;
71317;SDS011;59106;44.706;18.310;2024-03-02T09:34:08;21.63;;;11.80;;
71317;SDS011;59106;44.706;18.310;2024-03-02T09:36:34;17.00;;;9.23;;
71317;SDS011;59106;44.706;18.310;2024-03-02T09:39:00;19.50;;;10.00;;
71317;SDS011;59106;44.706;18.310;2024-03-02T09:41:26;19.95;;;10.40;;
71317;SDS011;59106;44.706;18.310;2024-03-02T09:43:53;19.67;;;9.38;;
71317;SDS011;59106;44.706;18.310;2024-03-02T09:46:19;19.17;;;10.63;;
71317;SDS011;59106;44.706;18.310;2024-03-02T09:48:45;17.85;;;10.07;;
71317;SDS011;59106;44.706;18.310;2024-03-02T09:51:11;20.65;;;11.38;;
71317;SDS011;59106;44.706;18.310;2024-03-02T09:53:38;22.00;;;10.77;;
71317;SDS011;59106;44.706;18.310;2024-03-02T09:56:04;18.85;;;10.15;;
71317;SDS011;59106;44.706;18.310;2024-03-02T09:58:33;22.80;;;9.65;;
71317;SDS011;59106;44.706;18.310;2024-03-02T10:00:58;18.37;;;10.73;;
71317;SDS011;59106;44.706;18.310;2024-03-02T10:03:25;18.07;;;8.40;;
71317;SDS011;59106;44.706;18.310;2024-03-02T10:05:52;18.25;;;7.78;;
71317;SDS011;59106;44.706;18.310;2024-03-02T10:08:18;18.88;;;7.50;;
71317;SDS011;59106;44.706;18.310;2024-03-02T10:10:44;14.57;;;6.20;;
71317;SDS011;59106;44.706;18.310;2024-03-02T10:13:10;15.83;;;6.30;;
71317;SDS011;59106;44.706;18.310;2024-03-02T10:15:37;14.35;;;5.50;;
71317;SDS011;59106;44.706;18.310;2024-03-02T10:18:03;11.38;;;4.25;;
71317;SDS011;59106;44.706;18.310;2024-03-02T10:20:29;10.37;;;4.40;;
71317;SDS011;59106;44.706;18.310;2024-03-02T10:22:56;11.93;;;4.80;;
71317;SDS011;59106;44.706;18.310;2024-03-02T10:25:34;12.13;;;4.90;;
71317;SDS011;59106;44.706;18.310;2024-03-02T10:28:00;12.10;;;5.40;;
71317;SDS011;59106;44.706;18.310;2024-03-02T10:30:27;10.65;;;4.00;;
71317;SDS011;59106;44.706;18.310;2024-03-02T10:32:56;11.38;;;4.18;;
71317;SDS011;59106;44.706;18.310;2024-03-02T10:35:22;12.55;;;4.95;;
71317;SDS011;59106;44.706;18.310;2024-03-02T10:37:49;10.38;;;3.60;;
71317;SDS011;59106;44.706;18.310;2024-03-02T10:40:15;10.85;;;3.53;;
71317;SDS011;59106;44.706;18.310;2024-03-02T10:42:41;8.73;;;3.07;;
71317;SDS011;59106;44.706;18.310;2024-03-02T10:45:10;7.80;;;2.50;;
71317;SDS011;59106;44.706;18.310;2024-03-02T10:47:37;5.20;;;1.50;;
71317;SDS011;59106;44.706;18.310;2024-03-02T10:50:05;7.20;;;2.10;;
71317;SDS011;59106;44.706;18.310;2024-03-02T10:52:37;7.18;;;2.10;;
71317;SDS011;59106;44.706;18.310;2024-03-02T10:55:03;9.88;;;2.78;;
71317;SDS011;59106;44.706;18.310;2024-03-02T10:57:33;7.07;;;1.60;;
71317;SDS011;59106;44.706;18.310;2024-03-02T11:00:02;8.35;;;1.95;;
71317;SDS011;59106;44.706;18.310;2024-03-02T11:02:29;9.75;;;2.20;;
71317;SDS011;59106;44.706;18.310;2024-03-02T11:04:56;5.82;;;1.50;;
71317;SDS011;59106;44.706;18.310;2024-03-02T11:07:22;6.15;;;1.75;;
71317;SDS011;59106;44.706;18.310;2024-03-02T11:09:54;6.25;;;1.90;;
71317;SDS011;59106;44.706;18.310;2024-03-02T11:12:31;6.65;;;2.05;;
71317;SDS011;59106;44.706;18.310;2024-03-02T11:15:02;5.47;;;1.47;;
71317;SDS011;59106;44.706;18.310;2024-03-02T11:17:30;8.55;;;3.83;;
71317;SDS011;59106;44.706;18.310;2024-03-02T11:19:56;10.07;;;3.92;;
71317;SDS011;59106;44.706;18.310;2024-03-02T11:22:23;122.20;;;102.85;;
71317;SDS011;59106;44.706;18.310;2024-03-02T11:24:49;7.47;;;2.58;;
71317;SDS011;59106;44.706;18.310;2024-03-02T11:27:58;12.70;;;9.13;;
71317;SDS011;59106;44.706;18.310;2024-03-02T11:30:02;7.88;;;2.33;;
71317;SDS011;59106;44.706;18.310;2024-03-02T11:32:29;6.82;;;2.45;;
71317;SDS011;59106;44.706;18.310;2024-03-02T11:34:54;13.70;;;6.70;;
71317;SDS011;59106;44.706;18.310;2024-03-02T11:37:21;18.23;;;11.00;;
71317;SDS011;59106;44.706;18.310;2024-03-02T11:39:48;13.18;;;5.60;;
71317;SDS011;59106;44.706;18.310;2024-03-02T11:42:15;9.15;;;4.82;;
71317;SDS011;59106;44.706;18.310;2024-03-02T11:44:42;10.48;;;4.95;;
71317;SDS011;59106;44.706;18.310;2024-03-02T11:47:10;7.85;;;3.42;;
71317;SDS011;59106;44.706;18.310;2024-03-02T11:52:03;7.43;;;2.70;;
71317;SDS011;59106;44.706;18.310;2024-03-02T11:54:30;10.57;;;3.85;;
71317;SDS011;59106;44.706;18.310;2024-03-02T11:56:59;12.77;;;5.35;;
71317;SDS011;59106;44.706;18.310;2024-03-02T11:59:25;15.75;;;5.82;;
71317;SDS011;59106;44.706;18.310;2024-03-02T12:01:52;10.05;;;3.97;;
71317;SDS011;59106;44.706;18.310;2024-03-02T12:04:19;10.68;;;3.88;;
71317;SDS011;59106;44.706;18.310;2024-03-02T12:06:45;9.98;;;4.32;;
71317;SDS011;59106;44.706;18.310;2024-03-02T12:09:12;11.50;;;4.45;;
71317;SDS011;59106;44.706;18.310;2024-03-02T12:11:38;12.70;;;5.10;;
71317;SDS011;59106;44.706;18.310;2024-03-02T12:14:04;10.32;;;4.60;;
71317;SDS011;59106;44.706;18.310;2024-03-02T12:16:30;11.27;;;5.10;;
71317;SDS011;59106;44.706;18.310;2024-03-02T12:18:56;12.83;;;5.83;;
71317;SDS011;59106;44.706;18.310;2024-03-02T12:21:22;14.77;;;7.00;;
71317;SDS011;59106;44.706;18.310;2024-03-02T12:23:47;11.10;;;5.50;;
71317;SDS011;59106;44.706;18.310;2024-03-02T12:26:15;10.45;;;4.93;;
71317;SDS011;59106;44.706;18.310;2024-03-02T12:28:41;7.93;;;3.17;;
71317;SDS011;59106;44.706;18.310;2024-03-02T12:31:07;10.05;;;3.13;;
71317;SDS011;59106;44.706;18.310;2024-03-02T12:33:33;9.98;;;3.75;;
71317;SDS011;59106;44.706;18.310;2024-03-02T12:35:59;8.80;;;3.05;;
71317;SDS011;59106;44.706;18.310;2024-03-02T12:38:25;8.00;;;2.93;;
71317;SDS011;59106;44.706;18.310;2024-03-02T12:40:52;6.83;;;2.80;;
71317;SDS011;59106;44.706;18.310;2024-03-02T12:43:18;8.47;;;3.00;;
71317;SDS011;59106;44.706;18.310;2024-03-02T12:45:44;7.17;;;2.83;;
71317;SDS011;59106;44.706;18.310;2024-03-02T12:48:10;9.13;;;3.65;;
71317;SDS011;59106;44.706;18.310;2024-03-02T12:50:36;9.02;;;3.85;;
71317;SDS011;59106;44.706;18.310;2024-03-02T12:53:02;10.32;;;3.58;;
71317;SDS011;59106;44.706;18.310;2024-03-02T12:55:28;9.95;;;3.47;;
71317;SDS011;59106;44.706;18.310;2024-03-02T12:57:54;8.35;;;3.67;;
71317;SDS011;59106;44.706;18.310;2024-03-02T13:00:20;7.67;;;3.20;;
71317;SDS011;59106;44.706;18.310;2024-03-02T13:02:47;10.05;;;4.40;;
71317;SDS011;59106;44.706;18.310;2024-03-02T13:05:14;7.97;;;3.50;;
71317;SDS011;59106;44.706;18.310;2024-03-02T13:07:40;8.23;;;3.55;;
71317;SDS011;59106;44.706;18.310;2024-03-02T13:10:06;8.20;;;3.13;;
71317;SDS011;59106;44.706;18.310;2024-03-02T13:12:35;7.95;;;3.30;;
71317;SDS011;59106;44.706;18.310;2024-03-02T13:15:02;7.95;;;3.50;;
71317;SDS011;59106;44.706;18.310;2024-03-02T13:17:28;8.40;;;3.70;;
71317;SDS011;59106;44.706;18.310;2024-03-02T13:19:57;8.23;;;3.10;;
71317;SDS011;59106;44.706;18.310;2024-03-02T13:22:23;7.22;;;3.10;;
71317;SDS011;59106;44.706;18.310;2024-03-02T13:24:50;8.52;;;3.38;;
71317;SDS011;59106;44.706;18.310;2024-03-02T13:27:16;10.80;;;4.00;;
71317;SDS011;59106;44.706;18.310;2024-03-02T13:29:48;9.30;;;3.45;;
71317;SDS011;59106;44.706;18.310;2024-03-02T13:32:14;9.00;;;3.38;;
71317;SDS011;59106;44.706;18.310;2024-03-02T13:34:40;8.33;;;3.50;;
71317;SDS011;59106;44.706;18.310;2024-03-02T13:37:06;9.63;;;3.30;;
71317;SDS011;59106;44.706;18.310;2024-03-02T13:39:32;9.32;;;3.55;;
71317;SDS011;59106;44.706;18.310;2024-03-02T13:42:00;9.82;;;4.68;;
71317;SDS011;59106;44.706;18.310;2024-03-02T13:44:34;13.15;;;5.05;;
71317;SDS011;59106;44.706;18.310;2024-03-02T13:47:00;10.25;;;5.22;;
71317;SDS011;59106;44.706;18.310;2024-03-02T13:49:26;10.82;;;4.75;;
71317;SDS011;59106;44.706;18.310;2024-03-02T13:51:59;9.80;;;5.00;;
71317;SDS011;59106;44.706;18.310;2024-03-02T13:54:26;10.43;;;4.60;;
71317;SDS011;59106;44.706;18.310;2024-03-02T13:56:52;10.93;;;5.40;;
71317;SDS011;59106;44.706;18.310;2024-03-02T13:59:18;10.32;;;4.70;;
71317;SDS011;59106;44.706;18.310;2024-03-02T14:01:44;10.40;;;4.90;;
71317;SDS011;59106;44.706;18.310;2024-03-02T14:04:10;10.43;;;5.00;;
71317;SDS011;59106;44.706;18.310;2024-03-02T14:06:36;12.43;;;5.97;;
71317;SDS011;59106;44.706;18.310;2024-03-02T14:09:02;11.83;;;5.70;;
71317;SDS011;59106;44.706;18.310;2024-03-02T14:11:27;11.57;;;4.73;;
71317;SDS011;59106;44.706;18.310;2024-03-02T14:13:54;12.27;;;6.40;;
71317;SDS011;59106;44.706;18.310;2024-03-02T14:16:20;12.67;;;5.17;;
71317;SDS011;59106;44.706;18.310;2024-03-02T14:18:46;10.95;;;4.93;;
71317;SDS011;59106;44.706;18.310;2024-03-02T14:21:12;11.20;;;4.40;;